Time;durP1;ratioP1;P1;durP2;ratioP2;P2;SDS_P1;SDS_P2;PMS_P1;PMS_P2;Temp;Humidity;BMP_temperature;BMP_pressure;BME280_temperature;BME280_humidity;BME280_pressure;Samples;Min_cycle;Max_cycle;Signal;HPM_P1;HPM_P2
2021/11/06 00:02:36;;;;;;;4.96;4.48;;;;;;;19.51;57.38;101701.36;;;;-52
2021/11/06 00:05:36;;;;;;;5.05;4.55;;;;;;;19.50;57.34;101703.92;;;;-53
2021/11/06 00:08:36;;;;;;;4.65;4.22;;;;;;;19.49;57.35;101701.39;;;;-50
2021/11/06 00:11:36;;;;;;;4.99;4.34;;;;;;;19.47;57.46;101701.83;;;;-50
2021/11/06 00:14:36;;;;;;;4.86;4.44;;;;;;;19.47;57.30;101705.40;;;;-50
2021/11/06 00:17:36;;;;;;;4.45;4.05;;;;;;;19.46;57.38;101711.70;;;;-50
2021/11/06 00:20:36;;;;;;;4.64;4.21;;;;;;;19.45;57.50;101714.36;;;;-50
2021/11/06 00:23:36;;;;;;;4.95;4.45;;;;;;;19.43;57.43;101717.33;;;;-50
2021/11/06 00:26:36;;;;;;;4.63;4.23;;;;;;;19.43;57.54;101723.18;;;;-50
2021/11/06 00:29:36;;;;;;;4.86;4.38;;;;;;;19.42;57.46;101723.45;;;;-50
2021/11/06 00:32:36;;;;;;;4.58;4.02;;;;;;;19.40;57.55;101719.09;;;;-50
2021/11/06 00:35:36;;;;;;;4.61;4.21;;;;;;;19.39;57.54;101716.33;;;;-50
2021/11/06 00:38:36;;;;;;;4.58;4.18;;;;;;;19.38;57.46;101713.42;;;;-50
2021/11/06 00:41:36;;;;;;;4.61;4.21;;;;;;;19.36;57.40;101721.14;;;;-50
2021/11/06 00:44:36;;;;;;;4.73;4.33;;;;;;;19.35;57.52;101730.84;;;;-50
2021/11/06 00:47:36;;;;;;;4.27;3.89;;;;;;;19.34;57.50;101732.05;;;;-50
2021/11/06 00:50:37;;;;;;;4.36;3.96;;;;;;;19.33;57.55;101731.20;;;;-50
2021/11/06 00:53:36;;;;;;;4.23;3.86;;;;;;;19.33;57.49;101720.70;;;;-50
2021/11/06 00:56:36;;;;;;;4.73;4.05;;;;;;;19.31;57.50;101721.14;;;;-50
2021/11/06 00:59:36;;;;;;;4.53;4.13;;;;;;;19.29;57.62;101722.05;;;;-50
2021/11/06 01:02:36;;;;;;;4.42;4.02;;;;;;;19.28;57.55;101726.36;;;;-50
2021/11/06 01:05:36;;;;;;;4.37;3.97;;;;;;;19.27;57.61;101722.01;;;;-50
2021/11/06 01:08:37;;;;;;;4.31;3.91;;;;;;;19.26;57.67;101722.97;;;;-50
2021/11/06 01:11:37;;;;;;;4.43;4.03;;;;;;;19.26;57.57;101715.78;;;;-50
2021/11/06 01:14:36;;;;;;;4.23;3.83;;;;;;;19.26;57.64;101717.73;;;;-50
2021/11/06 01:17:36;;;;;;;4.25;3.85;;;;;;;19.25;57.69;101717.31;;;;-50
2021/11/06 01:20:36;;;;;;;4.17;3.77;;;;;;;19.22;57.64;101717.73;;;;-50
2021/11/06 01:23:36;;;;;;;4.18;3.78;;;;;;;19.22;57.69;101723.02;;;;-50
2021/11/06 01:26:36;;;;;;;4.45;4.05;;;;;;;19.21;57.70;101727.03;;;;-50
2021/11/06 01:29:36;;;;;;;4.17;3.77;;;;;;;19.20;57.62;101732.23;;;;-50
2021/11/06 01:32:37;;;;;;;4.40;4.00;;;;;;;19.20;57.59;101729.87;;;;-50
2021/11/06 01:35:36;;;;;;;4.19;3.80;;;;;;;19.18;57.63;101728.02;;;;-50
2021/11/06 01:38:36;;;;;;;4.18;3.78;;;;;;;19.17;57.69;101723.06;;;;-50
2021/11/06 01:41:36;;;;;;;4.21;3.81;;;;;;;19.16;57.64;101721.39;;;;-50
2021/11/06 01:44:36;;;;;;;4.14;3.74;;;;;;;19.15;57.63;101725.93;;;;-50
2021/11/06 01:47:36;;;;;;;3.77;3.47;;;;;;;19.15;57.65;101723.00;;;;-50
2021/11/06 01:50:36;;;;;;;4.09;3.73;;;;;;;19.14;57.66;101722.06;;;;-50
2021/11/06 01:53:36;;;;;;;4.03;3.65;;;;;;;19.13;57.64;101719.86;;;;-50
2021/11/06 01:56:36;;;;;;;3.97;3.63;;;;;;;19.12;57.73;101718.67;;;;-50
2021/11/06 01:59:36;;;;;;;3.93;3.63;;;;;;;19.10;57.74;101718.05;;;;-50
2021/11/06 02:02:36;;;;;;;4.11;3.71;;;;;;;19.10;57.76;101714.79;;;;-50
2021/11/06 02:05:36;;;;;;;4.03;3.63;;;;;;;19.08;57.72;101711.89;;;;-50
2021/11/06 02:08:36;;;;;;;4.03;3.63;;;;;;;19.08;57.81;101714.58;;;;-50
2021/11/06 02:11:36;;;;;;;4.09;3.71;;;;;;;19.08;57.74;101714.00;;;;-50
2021/11/06 02:14:36;;;;;;;3.90;3.51;;;;;;;19.06;57.65;101710.55;;;;-50
2021/11/06 02:17:36;;;;;;;4.11;3.71;;;;;;;19.06;57.82;101711.51;;;;-50
2021/11/06 02:20:36;;;;;;;4.03;3.65;;;;;;;19.04;57.77;101707.22;;;;-50
2021/11/06 02:23:37;;;;;;;3.91;3.53;;;;;;;19.04;57.69;101703.25;;;;-50
2021/11/06 02:26:47;;;;;;;4.09;3.69;;;;;;;19.03;57.74;101703.16;;;;-50
2021/11/06 02:29:36;;;;;;;3.93;3.62;;;;;;;19.02;57.78;101705.64;;;;-50
2021/11/06 02:32:36;;;;;;;3.69;3.39;;;;;;;19.02;57.86;101703.77;;;;-50
2021/11/06 02:35:36;;;;;;;3.93;3.61;;;;;;;19.02;57.78;101706.36;;;;-50
2021/11/06 02:38:36;;;;;;;3.75;3.43;;;;;;;19.00;57.86;101710.84;;;;-50
2021/11/06 02:41:36;;;;;;;3.69;3.39;;;;;;;18.99;57.83;101713.20;;;;-50
2021/11/06 02:44:36;;;;;;;3.95;3.65;;;;;;;18.98;57.80;101709.01;;;;-50
2021/11/06 02:47:36;;;;;;;3.81;3.51;;;;;;;18.97;57.82;101707.78;;;;-50
2021/11/06 02:50:36;;;;;;;3.98;3.58;;;;;;;18.97;57.80;101709.89;;;;-50
2021/11/06 02:53:36;;;;;;;3.78;3.43;;;;;;;18.96;57.80;101709.77;;;;-50
2021/11/06 02:56:36;;;;;;;3.71;3.41;;;;;;;18.95;57.84;101710.08;;;;-50
2021/11/06 02:59:36;;;;;;;3.71;3.41;;;;;;;18.94;57.88;101718.56;;;;-50
2021/11/06 03:02:36;;;;;;;3.70;3.40;;;;;;;18.93;57.78;101714.65;;;;-50
2021/11/06 03:05:36;;;;;;;3.63;3.33;;;;;;;18.93;57.91;101712.37;;;;-50
2021/11/06 03:08:36;;;;;;;3.64;3.34;;;;;;;18.92;57.90;101716.55;;;;-50
2021/11/06 03:11:36;;;;;;;3.55;3.25;;;;;;;18.92;57.91;101715.66;;;;-50
2021/11/06 03:14:36;;;;;;;3.95;3.55;;;;;;;18.91;57.84;101715.48;;;;-50
2021/11/06 03:17:37;;;;;;;3.79;3.49;;;;;;;18.90;57.88;101714.79;;;;-50
2021/11/06 03:20:36;;;;;;;3.53;3.23;;;;;;;18.90;57.93;101718.36;;;;-50
2021/11/06 03:23:36;;;;;;;3.61;3.31;;;;;;;18.89;57.90;101715.18;;;;-50
2021/11/06 03:26:36;;;;;;;3.56;3.26;;;;;;;18.88;57.95;101715.30;;;;-50
2021/11/06 03:29:36;;;;;;;3.63;3.33;;;;;;;18.88;57.89;101718.75;;;;-50
2021/11/06 03:32:37;;;;;;;3.55;3.25;;;;;;;18.87;57.92;101717.88;;;;-50
2021/11/06 03:35:36;;;;;;;3.51;3.21;;;;;;;18.87;57.91;101719.43;;;;-50
2021/11/06 03:38:36;;;;;;;3.54;3.24;;;;;;;18.86;57.91;101722.70;;;;-50
2021/11/06 03:41:36;;;;;;;3.48;3.18;;;;;;;18.86;57.90;101725.39;;;;-50
2021/11/06 03:44:37;;;;;;;3.47;3.17;;;;;;;18.84;57.90;101721.06;;;;-50
2021/11/06 03:47:36;;;;;;;3.47;3.17;;;;;;;18.83;57.94;101721.73;;;;-50
2021/11/06 03:50:36;;;;;;;3.33;3.05;;;;;;;18.82;57.93;101720.97;;;;-50
2021/11/06 03:53:37;;;;;;;3.42;3.11;;;;;;;18.82;57.88;101721.21;;;;-50
2021/11/06 03:56:36;;;;;;;3.53;3.23;;;;;;;18.82;57.92;101715.04;;;;-52
2021/11/06 03:59:36;;;;;;;3.39;3.09;;;;;;;18.81;57.90;101720.22;;;;-48
2021/11/06 04:02:36;;;;;;;3.39;3.09;;;;;;;18.81;57.94;101720.79;;;;-48
2021/11/06 04:05:36;;;;;;;3.27;2.97;;;;;;;18.80;57.92;101725.66;;;;-48
2021/11/06 04:08:36;;;;;;;3.40;3.10;;;;;;;18.79;57.96;101724.64;;;;-48
2021/11/06 04:11:36;;;;;;;3.62;3.32;;;;;;;18.78;57.90;101725.52;;;;-48
2021/11/06 04:14:36;;;;;;;3.52;3.22;;;;;;;18.79;57.88;101732.75;;;;-48
2021/11/06 04:17:36;;;;;;;3.54;3.24;;;;;;;18.78;57.94;101731.52;;;;-48
2021/11/06 04:20:36;;;;;;;3.44;3.13;;;;;;;18.77;57.98;101730.30;;;;-48
2021/11/06 04:23:36;;;;;;;3.48;3.18;;;;;;;18.76;57.93;101731.14;;;;-56
2021/11/06 04:26:36;;;;;;;3.56;3.26;;;;;;;18.76;57.92;101734.27;;;;-56
2021/11/06 04:29:37;;;;;;;3.33;3.03;;;;;;;18.76;57.86;101738.25;;;;-47
2021/11/06 04:32:36;;;;;;;3.31;3.01;;;;;;;18.75;57.95;101742.75;;;;-52
2021/11/06 04:35:36;;;;;;;3.50;3.20;;;;;;;18.74;57.93;101742.45;;;;-48
2021/11/06 04:38:36;;;;;;;3.47;3.17;;;;;;;18.73;58.00;101742.13;;;;-48
2021/11/06 04:41:36;;;;;;;3.43;3.13;;;;;;;18.73;57.95;101749.84;;;;-48
2021/11/06 04:44:36;;;;;;;3.49;3.01;;;;;;;18.72;57.91;101753.64;;;;-48
2021/11/06 04:47:36;;;;;;;3.40;3.10;;;;;;;18.72;57.96;101759.13;;;;-48
2021/11/06 04:50:36;;;;;;;3.35;3.05;;;;;;;18.71;57.99;101761.31;;;;-48
2021/11/06 04:53:36;;;;;;;3.30;3.00;;;;;;;18.71;57.95;101761.95;;;;-48
2021/11/06 04:56:36;;;;;;;3.38;3.08;;;;;;;18.71;57.94;101764.47;;;;-48
2021/11/06 04:59:36;;;;;;;4.14;3.23;;;;;;;18.70;57.92;101762.34;;;;-56
2021/11/06 05:02:36;;;;;;;3.35;3.05;;;;;;;18.71;58.02;101758.45;;;;-56
2021/11/06 05:05:36;;;;;;;3.43;3.13;;;;;;;18.70;57.92;101755.53;;;;-56
2021/11/06 05:08:36;;;;;;;3.08;2.80;;;;;;;18.69;57.94;101754.84;;;;-57
2021/11/06 05:11:36;;;;;;;3.22;2.93;;;;;;;18.69;57.98;101757.51;;;;-53
2021/11/06 05:14:36;;;;;;;3.25;2.95;;;;;;;18.68;57.92;101764.56;;;;-57
2021/11/06 05:17:36;;;;;;;3.28;2.98;;;;;;;18.68;58.00;101768.05;;;;-56
2021/11/06 05:20:38;;;;;;;3.20;2.90;;;;;;;18.67;57.97;101771.73;;;;-56
2021/11/06 05:23:36;;;;;;;3.22;2.92;;;;;;;18.66;57.93;101775.55;;;;-50
2021/11/06 05:26:36;;;;;;;3.19;2.92;;;;;;;18.66;57.95;101775.95;;;;-48
2021/11/06 05:29:36;;;;;;;3.18;2.88;;;;;;;18.66;57.95;101774.41;;;;-48
2021/11/06 05:32:36;;;;;;;3.08;2.78;;;;;;;18.65;57.92;101768.11;;;;-48
2021/11/06 05:35:37;;;;;;;3.09;2.80;;;;;;;18.65;58.00;101771.51;;;;-48
2021/11/06 05:38:36;;;;;;;2.92;2.71;;;;;;;18.66;57.93;101770.50;;;;-48
2021/11/06 05:41:36;;;;;;;3.21;2.93;;;;;;;18.64;57.93;101765.09;;;;-48
2021/11/06 05:44:36;;;;;;;2.99;2.79;;;;;;;18.64;57.93;101766.78;;;;-51
2021/11/06 05:47:36;;;;;;;3.05;2.82;;;;;;;18.64;57.97;101766.22;;;;-52
2021/11/06 05:50:36;;;;;;;2.77;2.57;;;;;;;18.65;57.99;101767.70;;;;-52
2021/11/06 05:53:36;;;;;;;3.06;2.76;;;;;;;18.67;57.94;101773.94;;;;-50
2021/11/06 05:56:36;;;;;;;3.00;2.75;;;;;;;18.69;58.03;101777.89;;;;-50
2021/11/06 05:59:36;;;;;;;2.91;2.69;;;;;;;18.72;57.96;101775.33;;;;-55
2021/11/06 06:02:36;;;;;;;2.69;2.49;;;;;;;18.74;58.25;101777.01;;;;-57
2021/11/06 06:05:36;;;;;;;2.93;2.67;;;;;;;18.77;58.23;101778.55;;;;-55
2021/11/06 06:08:36;;;;;;;2.87;2.67;;;;;;;18.80;58.27;101780.15;;;;-52
2021/11/06 06:11:36;;;;;;;2.67;2.47;;;;;;;18.83;58.23;101778.84;;;;-53
2021/11/06 06:14:36;;;;;;;2.76;2.56;;;;;;;18.87;58.18;101780.18;;;;-53
2021/11/06 06:17:37;;;;;;;2.81;2.61;;;;;;;18.89;58.19;101782.20;;;;-48
2021/11/06 06:20:36;;;;;;;2.75;2.55;;;;;;;18.92;58.22;101786.02;;;;-48
2021/11/06 06:23:36;;;;;;;2.69;2.49;;;;;;;18.95;58.19;101787.83;;;;-48
2021/11/06 06:26:36;;;;;;;2.64;2.44;;;;;;;18.97;58.19;101792.19;;;;-48
2021/11/06 06:29:36;;;;;;;2.63;2.43;;;;;;;19.00;58.19;101791.61;;;;-53
2021/11/06 06:32:36;;;;;;;2.65;2.45;;;;;;;19.01;58.21;101795.31;;;;-48
2021/11/06 06:35:36;;;;;;;2.85;2.65;;;;;;;19.04;58.19;101803.09;;;;-57
2021/11/06 06:38:36;;;;;;;2.63;2.43;;;;;;;19.05;58.22;101804.50;;;;-56
2021/11/06 06:41:36;;;;;;;2.65;2.45;;;;;;;19.06;58.18;101807.80;;;;-48
2021/11/06 06:44:36;;;;;;;2.60;2.40;;;;;;;19.06;58.18;101808.53;;;;-48
2021/11/06 06:47:36;;;;;;;2.60;2.40;;;;;;;19.07;58.26;101809.55;;;;-52
2021/11/06 06:50:36;;;;;;;2.78;2.58;;;;;;;19.08;58.21;101810.95;;;;-57
2021/11/06 06:53:36;;;;;;;2.54;2.34;;;;;;;19.10;58.17;101815.55;;;;-48
2021/11/06 06:56:36;;;;;;;2.48;2.28;;;;;;;19.10;58.15;101820.67;;;;-48
2021/11/06 06:59:36;;;;;;;2.67;2.47;;;;;;;19.11;58.14;101823.69;;;;-48
2021/11/06 07:02:36;;;;;;;2.74;2.54;;;;;;;19.11;58.12;101829.47;;;;-57
2021/11/06 07:05:36;;;;;;;2.44;2.24;;;;;;;19.11;58.13;101831.50;;;;-52
2021/11/06 07:08:36;;;;;;;2.56;2.36;;;;;;;19.11;58.07;101828.41;;;;-52
2021/11/06 07:11:36;;;;;;;2.79;2.53;;;;;;;19.12;58.05;101829.42;;;;-57
2021/11/06 07:14:36;;;;;;;3.41;3.11;;;;;;;19.07;57.18;101831.98;;;;-57
2021/11/06 07:17:36;;;;;;;9.03;5.21;;;;;;;18.96;55.83;101831.70;;;;-57
2021/11/06 07:20:36;;;;;;;8.26;5.94;;;;;;;18.89;55.10;101839.38;;;;-56
2021/11/06 07:23:36;;;;;;;8.15;6.70;;;;;;;18.81;54.44;101847.66;;;;-57
2021/11/06 07:26:36;;;;;;;8.46;7.01;;;;;;;18.76;54.17;101844.80;;;;-50
2021/11/06 07:29:36;;;;;;;10.05;7.19;;;;;;;18.69;53.79;101852.12;;;;-51
2021/11/06 07:32:36;;;;;;;8.09;7.14;;;;;;;18.64;53.48;101849.62;;;;-50
2021/11/06 07:35:36;;;;;;;9.51;7.08;;;;;;;18.59;53.27;101854.09;;;;-50
2021/11/06 07:38:36;;;;;;;8.83;7.31;;;;;;;18.56;53.17;101858.37;;;;-50
2021/11/06 07:41:36;;;;;;;8.70;7.35;;;;;;;18.52;52.83;101856.45;;;;-50
2021/11/06 07:44:36;;;;;;;9.28;7.61;;;;;;;18.50;52.82;101859.62;;;;-50
2021/11/06 07:47:36;;;;;;;8.26;6.78;;;;;;;18.47;52.78;101864.02;;;;-56
2021/11/06 07:50:36;;;;;;;8.79;7.25;;;;;;;18.42;52.68;101862.94;;;;-56
2021/11/06 07:53:36;;;;;;;8.40;7.19;;;;;;;18.38;52.40;101865.32;;;;-50
2021/11/06 07:56:38;;;;;;;11.19;6.97;;;;;;;18.44;53.15;101869.24;;;;-50
2021/11/06 07:59:36;;;;;;;12.19;6.33;;;;;;;18.48;53.51;101873.52;;;;-50
2021/11/06 08:02:36;;;;;;;7.73;6.31;;;;;;;18.52;53.84;101866.44;;;;-50
2021/11/06 08:05:36;;;;;;;7.26;5.33;;;;;;;18.55;54.23;101865.01;;;;-50
2021/11/06 08:08:36;;;;;;;6.43;5.16;;;;;;;18.56;54.45;101862.67;;;;-50
2021/11/06 08:11:36;;;;;;;5.55;4.87;;;;;;;18.58;54.61;101861.34;;;;-56
2021/11/06 08:14:36;;;;;;;5.99;4.99;;;;;;;18.60;54.74;101868.23;;;;-55
2021/11/06 08:17:36;;;;;;;5.28;4.63;;;;;;;18.61;54.87;101871.50;;;;-57
2021/11/06 08:20:36;;;;;;;4.95;4.42;;;;;;;18.62;54.91;101870.73;;;;-56
2021/11/06 08:23:36;;;;;;;5.35;4.63;;;;;;;18.62;55.03;101876.98;;;;-55
2021/11/06 08:26:36;;;;;;;5.52;4.71;;;;;;;18.62;55.10;101875.86;;;;-55
2021/11/06 08:29:36;;;;;;;6.05;4.57;;;;;;;18.63;55.11;101874.17;;;;-48
2021/11/06 08:32:36;;;;;;;5.13;4.41;;;;;;;18.63;55.18;101872.94;;;;-48
2021/11/06 08:35:36;;;;;;;4.31;3.91;;;;;;;18.62;55.30;101882.44;;;;-48
2021/11/06 08:38:36;;;;;;;4.96;4.03;;;;;;;18.63;55.39;101886.02;;;;-48
2021/11/06 08:41:36;;;;;;;4.39;3.99;;;;;;;18.63;55.47;101886.58;;;;-48
2021/11/06 08:44:36;;;;;;;5.17;3.82;;;;;;;18.62;55.52;101886.09;;;;-48
2021/11/06 08:47:36;;;;;;;4.77;3.71;;;;;;;18.62;55.61;101887.64;;;;-48
2021/11/06 08:50:36;;;;;;;4.03;3.61;;;;;;;18.63;55.61;101893.56;;;;-48
2021/11/06 08:53:36;;;;;;;4.15;3.74;;;;;;;18.63;55.68;101898.28;;;;-48
2021/11/06 08:56:36;;;;;;;4.13;3.73;;;;;;;18.62;55.71;101898.11;;;;-48
2021/11/06 08:59:36;;;;;;;4.18;3.78;;;;;;;18.62;55.79;101890.79;;;;-48
2021/11/06 09:02:36;;;;;;;4.08;3.59;;;;;;;18.62;55.83;101893.39;;;;-50
2021/11/06 09:05:36;;;;;;;4.31;3.64;;;;;;;18.62;55.93;101889.00;;;;-50
2021/11/06 09:08:41;;;;;;;4.03;3.63;;;;;;;18.61;55.87;101891.65;;;;-48
2021/11/06 09:11:36;;;;;;;4.81;3.64;;;;;;;18.62;56.13;101888.59;;;;-59
2021/11/06 09:14:36;;;;;;;5.51;3.65;;;;;;;18.64;56.31;101886.47;;;;-57
2021/11/06 09:17:36;;;;;;;4.07;3.60;;;;;;;18.68;56.60;101889.05;;;;-50
2021/11/06 09:20:36;;;;;;;7.81;3.55;;;;;;;18.72;56.88;101892.19;;;;-51
2021/11/06 09:23:36;;;;;;;5.27;3.50;;;;;;;18.77;56.90;101898.98;;;;-50
2021/11/06 09:26:36;;;;;;;4.75;3.43;;;;;;;18.80;56.81;101902.39;;;;-50
2021/11/06 09:29:36;;;;;;;5.16;3.29;;;;;;;18.86;56.72;101895.97;;;;-50
2021/11/06 09:32:36;;;;;;;4.91;3.47;;;;;;;18.91;56.70;101897.36;;;;-51
2021/11/06 09:35:36;;;;;;;5.44;3.27;;;;;;;18.95;56.56;101892.21;;;;-51
2021/11/06 09:38:36;;;;;;;4.61;3.23;;;;;;;19.02;56.76;101890.87;;;;-49
2021/11/06 09:41:36;;;;;;;4.51;3.21;;;;;;;19.06;57.07;101891.01;;;;-52
2021/11/06 09:44:37;;;;;;;5.28;3.11;;;;;;;19.12;57.13;101896.14;;;;-58
2021/11/06 09:47:37;;;;;;;5.46;3.25;;;;;;;19.18;57.24;101900.47;;;;-60
2021/11/06 09:50:36;;;;;;;4.67;3.24;;;;;;;19.23;57.35;101902.16;;;;-56
2021/11/06 09:53:37;;;;;;;3.21;2.91;;;;;;;19.28;57.51;101893.72;;;;-54
2021/11/06 09:56:36;;;;;;;4.58;2.89;;;;;;;19.34;57.46;101897.28;;;;-46
2021/11/06 09:59:36;;;;;;;4.57;3.00;;;;;;;19.39;57.50;101894.27;;;;-50
2021/11/06 10:02:45;;;;;;;3.39;3.01;;;;;;;19.43;57.43;101900.81;;;;-48
2021/11/06 10:05:36;;;;;;;4.25;3.30;;;;;;;19.48;57.62;101902.59;;;;-50
2021/11/06 10:08:37;;;;;;;8.00;3.19;;;;;;;19.49;56.87;101898.16;;;;-57
2021/11/06 10:11:36;;;;;;;5.17;3.08;;;;;;;19.55;57.06;101899.11;;;;-57
2021/11/06 10:14:37;;;;;;;6.25;3.12;;;;;;;19.57;56.70;101902.91;;;;-57
2021/11/06 10:17:37;;;;;;;7.14;3.16;;;;;;;19.61;57.17;101900.05;;;;-56
2021/11/06 10:20:38;;;;;;;4.15;2.89;;;;;;;19.65;57.30;101901.72;;;;-56
2021/11/06 10:23:36;;;;;;;4.19;3.12;;;;;;;19.70;57.20;101901.11;;;;-61
2021/11/06 10:26:37;;;;;;;3.91;2.93;;;;;;;19.74;57.38;101898.66;;;;-61
2021/11/06 10:29:39;;;;;;;5.35;2.79;;;;;;;19.77;57.44;101898.48;;;;-60
2021/11/06 10:32:36;;;;;;;4.49;2.81;;;;;;;19.79;56.96;101903.58;;;;-51
2021/11/06 10:35:36;;;;;;;4.48;2.73;;;;;;;19.80;56.76;101901.67;;;;-51
2021/11/06 10:38:36;;;;;;;3.85;2.87;;;;;;;19.79;56.64;101896.34;;;;-51
2021/11/06 10:41:37;;;;;;;3.45;2.79;;;;;;;19.80;56.64;101895.41;;;;-51
2021/11/06 10:44:36;;;;;;;3.63;2.79;;;;;;;19.81;56.64;101891.44;;;;-51
2021/11/06 10:47:36;;;;;;;8.65;2.91;;;;;;;19.83;57.06;101886.61;;;;-59
2021/11/06 10:50:36;;;;;;;3.81;2.91;;;;;;;19.85;57.13;101884.55;;;;-57
2021/11/06 10:53:36;;;;;;;3.64;2.69;;;;;;;19.87;57.38;101882.33;;;;-51
2021/11/06 10:56:38;;;;;;;4.60;2.65;;;;;;;19.88;57.49;101880.43;;;;-50
2021/11/06 10:59:36;;;;;;;3.30;2.75;;;;;;;19.90;57.28;101881.37;;;;-54
2021/11/06 11:02:36;;;;;;;3.93;2.83;;;;;;;19.91;57.09;101873.00;;;;-48
2021/11/06 11:05:36;;;;;;;3.66;2.71;;;;;;;19.93;57.26;101870.05;;;;-47
2021/11/06 11:08:36;;;;;;;3.51;2.71;;;;;;;19.95;57.25;101864.16;;;;-49
2021/11/06 11:11:36;;;;;;;5.03;2.72;;;;;;;19.97;57.31;101860.56;;;;-48
2021/11/06 11:14:36;;;;;;;3.83;2.67;;;;;;;19.99;57.23;101857.20;;;;-49
2021/11/06 11:17:36;;;;;;;3.01;2.63;;;;;;;20.01;57.33;101850.25;;;;-58
2021/11/06 11:20:39;;;;;;;3.01;2.46;;;;;;;20.02;57.13;101853.52;;;;-59
2021/11/06 11:23:36;;;;;;;2.84;2.44;;;;;;;20.03;57.22;101841.59;;;;-49
2021/11/06 11:26:36;;;;;;;5.23;2.64;;;;;;;20.05;57.40;101838.72;;;;-48
2021/11/06 11:29:38;;;;;;;3.28;2.57;;;;;;;20.06;57.39;101838.00;;;;-46
2021/11/06 11:32:36;;;;;;;3.07;2.38;;;;;;;20.07;57.52;101829.00;;;;-55
2021/11/06 11:35:36;;;;;;;3.37;2.39;;;;;;;20.08;57.47;101819.91;;;;-52
2021/11/06 11:38:36;;;;;;;3.41;2.65;;;;;;;20.10;57.43;101815.97;;;;-54
2021/11/06 11:41:39;;;;;;;2.78;2.37;;;;;;;20.12;57.51;101814.80;;;;-52
2021/11/06 11:45:36;;;;;;;4.56;2.57;;;;;;;20.14;57.51;101809.80;;;;-54
2021/11/06 11:48:36;;;;;;;2.99;2.51;;;;;;;20.15;57.64;101808.14;;;;-48
2021/11/06 11:51:36;;;;;;;2.71;2.51;;;;;;;20.16;57.53;101811.08;;;;-55
2021/11/06 11:54:36;;;;;;;4.04;2.39;;;;;;;20.17;57.41;101798.63;;;;-54
2021/11/06 11:57:36;;;;;;;3.28;2.45;;;;;;;20.19;57.42;101792.73;;;;-57
2021/11/06 12:00:36;;;;;;;8.21;2.67;;;;;;;20.21;57.19;101790.95;;;;-54
2021/11/06 12:03:37;;;;;;;3.93;2.46;;;;;;;20.21;56.98;101784.64;;;;-54
2021/11/06 12:06:37;;;;;;;2.76;2.47;;;;;;;20.21;56.99;101779.92;;;;-49
2021/11/06 12:09:36;;;;;;;2.67;2.45;;;;;;;20.20;56.94;101781.22;;;;-62
2021/11/06 12:12:36;;;;;;;2.90;2.29;;;;;;;20.21;56.85;101778.78;;;;-62
2021/11/06 12:15:36;;;;;;;3.57;2.55;;;;;;;20.21;56.82;101778.95;;;;-52
2021/11/06 12:18:36;;;;;;;2.69;2.48;;;;;;;20.22;56.82;101776.55;;;;-52
2021/11/06 12:21:36;;;;;;;5.00;2.65;;;;;;;20.22;56.88;101770.68;;;;-54
2021/11/06 12:24:36;;;;;;;3.21;2.72;;;;;;;20.22;56.76;101769.80;;;;-59
2021/11/06 12:27:37;;;;;;;3.47;2.54;;;;;;;20.24;56.99;101766.42;;;;-59
2021/11/06 12:30:36;;;;;;;3.67;2.42;;;;;;;20.24;56.77;101765.69;;;;-50
2021/11/06 12:33:36;;;;;;;2.61;2.41;;;;;;;20.23;56.74;101759.91;;;;-50
2021/11/06 12:36:36;;;;;;;4.53;2.24;;;;;;;20.23;56.75;101755.06;;;;-50
2021/11/06 12:39:36;;;;;;;2.88;2.11;;;;;;;20.22;56.75;101748.63;;;;-48
2021/11/06 12:42:36;;;;;;;3.05;2.35;;;;;;;20.23;56.70;101742.64;;;;-47
2021/11/06 12:45:37;;;;;;;2.73;2.33;;;;;;;20.23;56.64;101742.04;;;;-60
2021/11/06 12:48:36;;;;;;;3.07;2.27;;;;;;;20.22;56.64;101745.13;;;;-50
2021/11/06 12:51:36;;;;;;;3.49;2.20;;;;;;;20.22;56.68;101740.48;;;;-53
2021/11/06 12:54:36;;;;;;;2.73;2.34;;;;;;;20.21;56.65;101738.36;;;;-53
2021/11/06 12:57:36;;;;;;;2.96;2.35;;;;;;;20.22;56.64;101738.28;;;;-53
2021/11/06 13:00:39;;;;;;;4.05;2.48;;;;;;;20.21;56.67;101737.84;;;;-60
2021/11/06 13:03:36;;;;;;;3.39;2.30;;;;;;;20.22;56.62;101734.05;;;;-52
2021/11/06 13:06:36;;;;;;;2.39;2.19;;;;;;;20.21;56.63;101727.45;;;;-60
2021/11/06 13:09:36;;;;;;;3.46;2.33;;;;;;;20.21;56.64;101718.17;;;;-47
2021/11/06 13:12:36;;;;;;;2.53;2.21;;;;;;;20.22;56.60;101718.91;;;;-47
2021/11/06 13:15:36;;;;;;;2.33;2.13;;;;;;;20.20;56.53;101708.37;;;;-47
2021/11/06 13:18:36;;;;;;;2.59;2.32;;;;;;;20.21;56.57;101712.84;;;;-47
2021/11/06 13:21:36;;;;;;;3.11;2.26;;;;;;;20.20;56.59;101710.81;;;;-47
2021/11/06 13:24:36;;;;;;;2.52;2.32;;;;;;;20.20;56.64;101708.53;;;;-50
2021/11/06 13:27:36;;;;;;;3.32;2.39;;;;;;;20.19;56.60;101700.30;;;;-60
2021/11/06 13:30:36;;;;;;;2.64;2.44;;;;;;;20.20;56.61;101703.64;;;;-53
2021/11/06 13:33:36;;;;;;;2.44;2.24;;;;;;;20.19;56.58;101697.74;;;;-53
2021/11/06 13:36:37;;;;;;;2.64;2.25;;;;;;;20.18;56.58;101696.19;;;;-58
2021/11/06 13:39:37;;;;;;;2.46;2.26;;;;;;;20.18;56.53;101691.14;;;;-47
2021/11/06 13:42:36;;;;;;;2.40;2.20;;;;;;;20.18;56.58;101688.55;;;;-47
2021/11/06 13:45:36;;;;;;;2.37;2.17;;;;;;;20.18;56.50;101687.73;;;;-50
2021/11/06 13:48:39;;;;;;;3.49;2.39;;;;;;;20.18;56.56;101681.86;;;;-47
2021/11/06 13:51:36;;;;;;;2.33;2.13;;;;;;;20.18;56.55;101676.01;;;;-60
2021/11/06 13:54:39;;;;;;;2.35;2.15;;;;;;;20.18;56.58;101671.53;;;;-47
2021/11/06 13:57:36;;;;;;;2.43;2.23;;;;;;;20.18;56.55;101670.95;;;;-60
2021/11/06 14:00:36;;;;;;;3.27;2.43;;;;;;;20.18;56.58;101667.62;;;;-59
2021/11/06 14:03:36;;;;;;;2.53;2.20;;;;;;;20.17;56.59;101664.84;;;;-60
2021/11/06 14:06:36;;;;;;;2.95;2.15;;;;;;;20.18;56.66;101665.02;;;;-53
2021/11/06 14:09:36;;;;;;;2.70;2.30;;;;;;;20.18;56.59;101665.91;;;;-50
2021/11/06 14:12:36;;;;;;;2.47;2.27;;;;;;;20.17;56.61;101658.25;;;;-50
2021/11/06 14:15:38;;;;;;;4.16;2.44;;;;;;;20.18;56.74;101652.56;;;;-62
2021/11/06 14:18:42;;;;;;;3.85;2.39;;;;;;;20.20;56.88;101655.62;;;;-61
2021/11/06 14:21:41;;;;;;;2.51;2.31;;;;;;;20.21;57.04;101651.16;;;;-52
2021/11/06 14:24:37;;;;;;;2.97;2.40;;;;;;;20.22;57.03;101647.20;;;;-55
2021/11/06 14:27:36;;;;;;;2.90;2.33;;;;;;;20.24;56.92;101642.77;;;;-58
2021/11/06 14:30:36;;;;;;;6.85;4.71;;;;;;;20.25;55.94;101642.04;;;;-60
2021/11/06 14:33:36;;;;;;;5.48;3.53;;;;;;;20.26;56.60;101641.34;;;;-50
2021/11/06 14:36:36;;;;;;;6.87;3.41;;;;;;;20.27;56.85;101637.12;;;;-53
2021/11/06 14:39:36;;;;;;;3.92;3.11;;;;;;;20.28;56.83;101636.67;;;;-55
2021/11/06 14:42:36;;;;;;;3.03;2.73;;;;;;;20.29;56.81;101632.28;;;;-48
2021/11/06 14:45:36;;;;;;;4.04;2.82;;;;;;;20.31;56.85;101626.22;;;;-50
2021/11/06 14:48:36;;;;;;;9.68;3.12;;;;;;;20.33;56.88;101624.06;;;;-53
2021/11/06 14:51:36;;;;;;;4.25;3.11;;;;;;;20.34;56.93;101621.25;;;;-48
2021/11/06 14:54:36;;;;;;;4.32;2.97;;;;;;;20.35;56.90;101615.23;;;;-48
2021/11/06 14:57:36;;;;;;;3.59;2.98;;;;;;;20.36;56.96;101612.18;;;;-50
2021/11/06 15:00:36;;;;;;;3.59;3.17;;;;;;;20.35;56.39;101605.47;;;;-52
2021/11/06 15:03:36;;;;;;;4.55;3.21;;;;;;;20.36;56.45;101600.58;;;;-49
2021/11/06 15:06:36;;;;;;;4.94;3.14;;;;;;;20.37;56.71;101597.05;;;;-54
2021/11/06 15:09:36;;;;;;;3.51;3.11;;;;;;;20.37;56.83;101593.95;;;;-51
2021/11/06 15:12:36;;;;;;;4.31;3.10;;;;;;;20.38;56.84;101589.83;;;;-50
2021/11/06 15:15:36;;;;;;;3.93;3.08;;;;;;;20.40;56.84;101592.20;;;;-52
2021/11/06 15:18:36;;;;;;;4.89;3.10;;;;;;;20.41;57.00;101590.04;;;;-51
2021/11/06 15:21:38;;;;;;;5.05;3.22;;;;;;;20.42;56.95;101588.05;;;;-45
2021/11/06 15:24:36;;;;;;;6.17;3.19;;;;;;;20.45;56.86;101583.61;;;;-51
2021/11/06 15:27:50;;;;;;;6.18;3.28;;;;;;;20.48;57.09;101581.66;;;;-51
2021/11/06 15:30:36;;;;;;;8.01;3.75;;;;;;;20.48;56.61;101579.53;;;;-53
2021/11/06 15:33:36;;;;;;;10.72;3.99;;;;;;;20.47;56.36;101575.91;;;;-61
2021/11/06 15:36:36;;;;;;;6.08;3.78;;;;;;;20.46;56.35;101575.42;;;;-49
2021/11/06 15:39:36;;;;;;;4.59;3.20;;;;;;;20.47;56.65;101572.25;;;;-59
2021/11/06 15:42:36;;;;;;;7.04;3.12;;;;;;;20.48;56.66;101570.58;;;;-51
2021/11/06 15:45:36;;;;;;;5.20;3.33;;;;;;;20.48;56.58;101566.97;;;;-60
2021/11/06 15:48:36;;;;;;;5.00;2.97;;;;;;;20.48;56.74;101564.39;;;;-61
2021/11/06 15:51:42;;;;;;;3.78;3.29;;;;;;;20.51;56.81;101566.22;;;;-48
2021/11/06 15:54:36;;;;;;;4.01;3.21;;;;;;;20.51;56.87;101559.06;;;;-54
2021/11/06 15:57:36;;;;;;;3.33;3.03;;;;;;;20.52;56.94;101564.23;;;;-59
2021/11/06 16:00:36;;;;;;;6.08;3.03;;;;;;;20.53;56.90;101558.28;;;;-52
2021/11/06 16:03:36;;;;;;;3.81;3.05;;;;;;;20.55;56.98;101559.63;;;;-51
2021/11/06 16:06:36;;;;;;;5.58;3.15;;;;;;;20.56;56.90;101554.26;;;;-52
2021/11/06 16:09:36;;;;;;;3.50;3.01;;;;;;;20.56;57.01;101553.03;;;;-51
2021/11/06 16:12:36;;;;;;;6.81;3.10;;;;;;;20.58;56.98;101546.84;;;;-59
2021/11/06 16:15:40;;;;;;;4.11;3.29;;;;;;;20.59;57.04;101549.72;;;;-51
2021/11/06 16:18:39;;;;;;;5.22;2.97;;;;;;;20.60;57.03;101543.95;;;;-50
2021/11/06 16:21:36;;;;;;;3.30;2.98;;;;;;;20.61;56.96;101539.91;;;;-50
2021/11/06 16:24:36;;;;;;;3.90;2.89;;;;;;;20.63;57.18;101538.48;;;;-55
2021/11/06 16:27:36;;;;;;;4.13;3.10;;;;;;;20.65;57.08;101541.01;;;;-49
2021/11/06 16:30:36;;;;;;;5.44;3.53;;;;;;;20.64;56.77;101542.14;;;;-55
2021/11/06 16:33:36;;;;;;;4.53;3.15;;;;;;;20.63;56.46;101542.11;;;;-61
2021/11/06 16:36:36;;;;;;;4.75;2.95;;;;;;;20.61;56.26;101547.97;;;;-51
2021/11/06 16:39:36;;;;;;;4.83;3.07;;;;;;;20.60;56.24;101551.27;;;;-54
2021/11/06 16:42:37;;;;;;;4.85;2.97;;;;;;;20.59;56.31;101551.02;;;;-51
2021/11/06 16:45:36;;;;;;;3.73;3.08;;;;;;;20.58;56.30;101549.69;;;;-60